sensor_id;sensor_type;location;lat;lon;timestamp;P1;durP1;ratioP1;P2;durP2;ratioP2
22826;SDS011;11580;52.562;13.418;2023-03-01T00:01:07;21.67;;;19.23;;
22826;SDS011;11580;52.562;13.418;2023-03-01T00:03:36;20.77;;;17.17;;
22826;SDS011;11580;52.562;13.418;2023-03-01T00:06:04;19.17;;;17.27;;
22826;SDS011;11580;52.562;13.418;2023-03-01T00:08:33;17.50;;;15.00;;
22826;SDS011;11580;52.562;13.418;2023-03-01T00:11:03;19.50;;;16.20;;
22826;SDS011;11580;52.562;13.418;2023-03-01T00:13:34;15.40;;;13.53;;
22826;SDS011;11580;52.562;13.418;2023-03-01T00:16:02;17.20;;;14.23;;
22826;SDS011;11580;52.562;13.418;2023-03-01T00:18:30;22.67;;;17.83;;
22826;SDS011;11580;52.562;13.418;2023-03-01T00:20:58;23.97;;;18.20;;
22826;SDS011;11580;52.562;13.418;2023-03-01T00:23:25;25.63;;;20.53;;
22826;SDS011;11580;52.562;13.418;2023-03-01T00:25:53;24.77;;;21.37;;
22826;SDS011;11580;52.562;13.418;2023-03-01T00:28:22;29.10;;;23.73;;
22826;SDS011;11580;52.562;13.418;2023-03-01T00:30:50;25.43;;;21.40;;
22826;SDS011;11580;52.562;13.418;2023-03-01T00:33:17;24.80;;;21.63;;
22826;SDS011;11580;52.562;13.418;2023-03-01T00:35:44;74.63;;;40.00;;
22826;SDS011;11580;52.562;13.418;2023-03-01T00:38:11;38.70;;;28.50;;
22826;SDS011;11580;52.562;13.418;2023-03-01T00:40:39;34.00;;;26.90;;
22826;SDS011;11580;52.562;13.418;2023-03-01T00:43:06;34.27;;;25.87;;
22826;SDS011;11580;52.562;13.418;2023-03-01T00:45:34;26.37;;;23.33;;
22826;SDS011;11580;52.562;13.418;2023-03-01T00:48:01;26.43;;;22.40;;
22826;SDS011;11580;52.562;13.418;2023-03-01T00:50:30;32.47;;;26.20;;
22826;SDS011;11580;52.562;13.418;2023-03-01T00:52:57;27.93;;;24.87;;
22826;SDS011;11580;52.562;13.418;2023-03-01T00:55:24;30.57;;;25.40;;
22826;SDS011;11580;52.562;13.418;2023-03-01T00:57:52;28.73;;;24.07;;
22826;SDS011;11580;52.562;13.418;2023-03-01T01:00:19;29.67;;;26.43;;
22826;SDS011;11580;52.562;13.418;2023-03-01T01:02:48;28.63;;;24.60;;
22826;SDS011;11580;52.562;13.418;2023-03-01T01:05:16;34.70;;;28.40;;
22826;SDS011;11580;52.562;13.418;2023-03-01T01:07:46;31.43;;;26.27;;
22826;SDS011;11580;52.562;13.418;2023-03-01T01:10:14;29.97;;;26.80;;
22826;SDS011;11580;52.562;13.418;2023-03-01T01:12:43;29.03;;;26.07;;
22826;SDS011;11580;52.562;13.418;2023-03-01T01:15:11;29.47;;;24.60;;
22826;SDS011;11580;52.562;13.418;2023-03-01T01:17:41;30.80;;;24.37;;
22826;SDS011;11580;52.562;13.418;2023-03-01T01:20:11;28.43;;;25.43;;
22826;SDS011;11580;52.562;13.418;2023-03-01T01:22:38;33.10;;;26.57;;
22826;SDS011;11580;52.562;13.418;2023-03-01T01:25:06;29.50;;;26.33;;
22826;SDS011;11580;52.562;13.418;2023-03-01T01:27:34;28.80;;;25.53;;
22826;SDS011;11580;52.562;13.418;2023-03-01T01:30:01;29.03;;;25.60;;
22826;SDS011;11580;52.562;13.418;2023-03-01T01:32:29;27.40;;;24.40;;
22826;SDS011;11580;52.562;13.418;2023-03-01T01:34:56;28.03;;;23.93;;
22826;SDS011;11580;52.562;13.418;2023-03-01T01:37:25;29.90;;;24.17;;
22826;SDS011;11580;52.562;13.418;2023-03-01T01:39:56;24.57;;;21.20;;
22826;SDS011;11580;52.562;13.418;2023-03-01T01:42:24;22.20;;;19.90;;
22826;SDS011;11580;52.562;13.418;2023-03-01T01:47:55;21.00;;;18.83;;
22826;SDS011;11580;52.562;13.418;2023-03-01T01:50:29;23.93;;;19.40;;
22826;SDS011;11580;52.562;13.418;2023-03-01T01:53:05;21.23;;;17.87;;
22826;SDS011;11580;52.562;13.418;2023-03-01T01:55:39;24.97;;;20.10;;
22826;SDS011;11580;52.562;13.418;2023-03-01T01:58:12;22.70;;;19.60;;
22826;SDS011;11580;52.562;13.418;2023-03-01T02:00:43;20.93;;;18.63;;
22826;SDS011;11580;52.562;13.418;2023-03-01T02:03:12;21.23;;;18.10;;
22826;SDS011;11580;52.562;13.418;2023-03-01T02:05:46;19.07;;;16.70;;
22826;SDS011;11580;52.562;13.418;2023-03-01T02:08:21;24.10;;;18.83;;
22826;SDS011;11580;52.562;13.418;2023-03-01T02:10:54;21.87;;;18.93;;
22826;SDS011;11580;52.562;13.418;2023-03-01T02:13:23;24.03;;;21.43;;
22826;SDS011;11580;52.562;13.418;2023-03-01T02:15:50;24.90;;;20.40;;
22826;SDS011;11580;52.562;13.418;2023-03-01T02:18:20;24.93;;;20.10;;
22826;SDS011;11580;52.562;13.418;2023-03-01T02:20:53;27.87;;;21.10;;
22826;SDS011;11580;52.562;13.418;2023-03-01T02:23:36;29.63;;;22.50;;
22826;SDS011;11580;52.562;13.418;2023-03-01T02:26:05;26.00;;;21.70;;
22826;SDS011;11580;52.562;13.418;2023-03-01T02:28:40;26.50;;;21.80;;
22826;SDS011;11580;52.562;13.418;2023-03-01T02:31:10;28.53;;;22.33;;
22826;SDS011;11580;52.562;13.418;2023-03-01T02:34:01;22.77;;;18.87;;
22826;SDS011;11580;52.562;13.418;2023-03-01T02:36:31;20.30;;;18.17;;
22826;SDS011;11580;52.562;13.418;2023-03-01T02:39:03;24.43;;;20.43;;
22826;SDS011;11580;52.562;13.418;2023-03-01T02:41:41;22.93;;;19.10;;
22826;SDS011;11580;52.562;13.418;2023-03-01T02:44:15;25.13;;;20.37;;
22826;SDS011;11580;52.562;13.418;2023-03-01T02:46:43;21.27;;;19.07;;
22826;SDS011;11580;52.562;13.418;2023-03-01T02:49:18;25.93;;;20.70;;
22826;SDS011;11580;52.562;13.418;2023-03-01T02:51:54;25.10;;;18.30;;
22826;SDS011;11580;52.562;13.418;2023-03-01T02:54:50;23.23;;;19.13;;
22826;SDS011;11580;52.562;13.418;2023-03-01T02:57:26;23.27;;;19.13;;
22826;SDS011;11580;52.562;13.418;2023-03-01T02:59:58;26.03;;;19.20;;
22826;SDS011;11580;52.562;13.418;2023-03-01T03:02:33;19.27;;;17.20;;
22826;SDS011;11580;52.562;13.418;2023-03-01T03:05:10;22.70;;;16.27;;
22826;SDS011;11580;52.562;13.418;2023-03-01T03:07:41;20.17;;;16.43;;
22826;SDS011;11580;52.562;13.418;2023-03-01T03:10:12;16.00;;;13.07;;
22826;SDS011;11580;52.562;13.418;2023-03-01T03:12:42;16.77;;;15.13;;
22826;SDS011;11580;52.562;13.418;2023-03-01T03:15:10;19.47;;;15.90;;
22826;SDS011;11580;52.562;13.418;2023-03-01T03:17:38;22.73;;;17.20;;
22826;SDS011;11580;52.562;13.418;2023-03-01T03:20:08;18.80;;;16.80;;
22826;SDS011;11580;52.562;13.418;2023-03-01T03:22:44;19.40;;;15.40;;
22826;SDS011;11580;52.562;13.418;2023-03-01T03:25:12;19.70;;;15.50;;
22826;SDS011;11580;52.562;13.418;2023-03-01T03:27:40;21.17;;;16.00;;
22826;SDS011;11580;52.562;13.418;2023-03-01T03:30:12;18.20;;;16.30;;
22826;SDS011;11580;52.562;13.418;2023-03-01T03:32:42;21.03;;;15.83;;
22826;SDS011;11580;52.562;13.418;2023-03-01T03:35:18;18.03;;;15.50;;
22826;SDS011;11580;52.562;13.418;2023-03-01T03:37:47;22.30;;;17.00;;
22826;SDS011;11580;52.562;13.418;2023-03-01T03:40:32;18.90;;;16.40;;
22826;SDS011;11580;52.562;13.418;2023-03-01T03:43:00;15.77;;;14.10;;
22826;SDS011;11580;52.562;13.418;2023-03-01T03:45:29;21.13;;;17.10;;
22826;SDS011;11580;52.562;13.418;2023-03-01T03:47:58;23.33;;;18.57;;
22826;SDS011;11580;52.562;13.418;2023-03-01T03:50:26;22.30;;;17.57;;
22826;SDS011;11580;52.562;13.418;2023-03-01T03:52:53;19.77;;;16.53;;
22826;SDS011;11580;52.562;13.418;2023-03-01T03:55:20;22.03;;;17.37;;
22826;SDS011;11580;52.562;13.418;2023-03-01T03:57:48;22.17;;;18.40;;
22826;SDS011;11580;52.562;13.418;2023-03-01T04:00:17;22.17;;;19.40;;
22826;SDS011;11580;52.562;13.418;2023-03-01T04:02:48;24.60;;;18.77;;
22826;SDS011;11580;52.562;13.418;2023-03-01T04:05:16;19.17;;;16.90;;
22826;SDS011;11580;52.562;13.418;2023-03-01T04:07:45;18.93;;;17.00;;
22826;SDS011;11580;52.562;13.418;2023-03-01T04:10:14;19.63;;;16.63;;
22826;SDS011;11580;52.562;13.418;2023-03-01T04:12:43;17.93;;;16.03;;
22826;SDS011;11580;52.562;13.418;2023-03-01T04:15:11;18.60;;;16.67;;
22826;SDS011;11580;52.562;13.418;2023-03-01T04:17:41;17.10;;;15.37;;
22826;SDS011;11580;52.562;13.418;2023-03-01T04:20:13;18.73;;;15.90;;
22826;SDS011;11580;52.562;13.418;2023-03-01T04:22:49;19.77;;;15.93;;
22826;SDS011;11580;52.562;13.418;2023-03-01T04:25:18;20.50;;;17.33;;
22826;SDS011;11580;52.562;13.418;2023-03-01T04:27:45;19.80;;;17.47;;
22826;SDS011;11580;52.562;13.418;2023-03-01T04:30:13;20.40;;;17.50;;
22826;SDS011;11580;52.562;13.418;2023-03-01T04:32:41;20.47;;;16.90;;
22826;SDS011;11580;52.562;13.418;2023-03-01T04:35:08;19.43;;;17.37;;
22826;SDS011;11580;52.562;13.418;2023-03-01T04:37:37;24.67;;;16.27;;
22826;SDS011;11580;52.562;13.418;2023-03-01T04:40:05;21.50;;;16.93;;
22826;SDS011;11580;52.562;13.418;2023-03-01T04:42:41;22.10;;;17.50;;
22826;SDS011;11580;52.562;13.418;2023-03-01T04:45:09;18.07;;;16.17;;
22826;SDS011;11580;52.562;13.418;2023-03-01T04:47:39;25.03;;;18.10;;
22826;SDS011;11580;52.562;13.418;2023-03-01T04:50:08;20.90;;;17.23;;
22826;SDS011;11580;52.562;13.418;2023-03-01T04:52:39;22.37;;;18.20;;
22826;SDS011;11580;52.562;13.418;2023-03-01T04:55:06;20.30;;;17.47;;
22826;SDS011;11580;52.562;13.418;2023-03-01T04:57:35;20.67;;;17.10;;
22826;SDS011;11580;52.562;13.418;2023-03-01T05:00:02;19.97;;;17.90;;
22826;SDS011;11580;52.562;13.418;2023-03-01T05:02:45;21.50;;;16.00;;
22826;SDS011;11580;52.562;13.418;2023-03-01T05:05:23;20.37;;;18.17;;
22826;SDS011;11580;52.562;13.418;2023-03-01T05:07:55;21.63;;;18.00;;
22826;SDS011;11580;52.562;13.418;2023-03-01T05:10:26;23.53;;;18.10;;
22826;SDS011;11580;52.562;13.418;2023-03-01T05:12:56;24.23;;;20.13;;
22826;SDS011;11580;52.562;13.418;2023-03-01T05:15:24;20.80;;;17.50;;
22826;SDS011;11580;52.562;13.418;2023-03-01T05:17:52;22.63;;;18.80;;
22826;SDS011;11580;52.562;13.418;2023-03-01T05:20:20;21.50;;;18.93;;
22826;SDS011;11580;52.562;13.418;2023-03-01T05:22:48;22.90;;;18.27;;
22826;SDS011;11580;52.562;13.418;2023-03-01T05:25:17;24.27;;;18.17;;
22826;SDS011;11580;52.562;13.418;2023-03-01T05:27:46;20.97;;;17.93;;
22826;SDS011;11580;52.562;13.418;2023-03-01T05:30:14;21.37;;;18.27;;
22826;SDS011;11580;52.562;13.418;2023-03-01T05:32:43;22.20;;;17.80;;
22826;SDS011;11580;52.562;13.418;2023-03-01T05:35:13;18.83;;;16.07;;
22826;SDS011;11580;52.562;13.418;2023-03-01T05:37:43;21.27;;;17.50;;
22826;SDS011;11580;52.562;13.418;2023-03-01T05:40:13;22.40;;;18.20;;
22826;SDS011;11580;52.562;13.418;2023-03-01T05:42:44;21.43;;;17.47;;
22826;SDS011;11580;52.562;13.418;2023-03-01T05:45:14;19.00;;;16.17;;
22826;SDS011;11580;52.562;13.418;2023-03-01T05:47:42;20.97;;;16.60;;
22826;SDS011;11580;52.562;13.418;2023-03-01T05:50:12;20.87;;;17.23;;
22826;SDS011;11580;52.562;13.418;2023-03-01T05:52:44;18.77;;;15.93;;
22826;SDS011;11580;52.562;13.418;2023-03-01T05:55:13;23.77;;;18.20;;
22826;SDS011;11580;52.562;13.418;2023-03-01T05:57:42;19.43;;;17.10;;
22826;SDS011;11580;52.562;13.418;2023-03-01T06:00:12;21.30;;;18.53;;
22826;SDS011;11580;52.562;13.418;2023-03-01T06:02:41;23.33;;;21.03;;
22826;SDS011;11580;52.562;13.418;2023-03-01T06:05:09;22.20;;;18.40;;
22826;SDS011;11580;52.562;13.418;2023-03-01T06:07:39;23.97;;;19.40;;
22826;SDS011;11580;52.562;13.418;2023-03-01T06:10:07;25.07;;;19.13;;
22826;SDS011;11580;52.562;13.418;2023-03-01T06:12:37;25.57;;;19.97;;
22826;SDS011;11580;52.562;13.418;2023-03-01T06:15:09;24.43;;;19.50;;
22826;SDS011;11580;52.562;13.418;2023-03-01T06:17:38;22.50;;;18.50;;
22826;SDS011;11580;52.562;13.418;2023-03-01T06:20:09;24.60;;;20.40;;
22826;SDS011;11580;52.562;13.418;2023-03-01T06:22:39;21.73;;;18.47;;
22826;SDS011;11580;52.562;13.418;2023-03-01T06:25:08;23.67;;;19.60;;
22826;SDS011;11580;52.562;13.418;2023-03-01T06:27:36;22.93;;;19.57;;
22826;SDS011;11580;52.562;13.418;2023-03-01T06:30:03;24.37;;;19.47;;
22826;SDS011;11580;52.562;13.418;2023-03-01T06:32:34;25.83;;;19.90;;
22826;SDS011;11580;52.562;13.418;2023-03-01T06:35:02;23.30;;;19.10;;
22826;SDS011;11580;52.562;13.418;2023-03-01T06:37:30;22.83;;;18.10;;
22826;SDS011;11580;52.562;13.418;2023-03-01T06:39:57;18.27;;;16.37;;
22826;SDS011;11580;52.562;13.418;2023-03-01T06:42:24;23.10;;;19.47;;
22826;SDS011;11580;52.562;13.418;2023-03-01T06:44:51;21.77;;;18.67;;
22826;SDS011;11580;52.562;13.418;2023-03-01T06:47:19;21.43;;;16.87;;
22826;SDS011;11580;52.562;13.418;2023-03-01T06:49:47;23.33;;;19.57;;
22826;SDS011;11580;52.562;13.418;2023-03-01T06:52:14;22.97;;;20.10;;
22826;SDS011;11580;52.562;13.418;2023-03-01T06:54:41;22.33;;;19.40;;
22826;SDS011;11580;52.562;13.418;2023-03-01T06:57:08;25.47;;;22.73;;
22826;SDS011;11580;52.562;13.418;2023-03-01T06:59:36;26.33;;;21.63;;
22826;SDS011;11580;52.562;13.418;2023-03-01T07:02:03;23.30;;;20.07;;
22826;SDS011;11580;52.562;13.418;2023-03-01T07:04:30;26.53;;;23.73;;
22826;SDS011;11580;52.562;13.418;2023-03-01T07:06:58;23.10;;;20.17;;
22826;SDS011;11580;52.562;13.418;2023-03-01T07:09:25;27.30;;;21.30;;
22826;SDS011;11580;52.562;13.418;2023-03-01T07:11:53;21.47;;;18.57;;
22826;SDS011;11580;52.562;13.418;2023-03-01T07:14:20;21.87;;;19.30;;
22826;SDS011;11580;52.562;13.418;2023-03-01T07:16:49;22.87;;;18.70;;
22826;SDS011;11580;52.562;13.418;2023-03-01T07:19:16;21.10;;;18.53;;
22826;SDS011;11580;52.562;13.418;2023-03-01T07:21:44;22.60;;;19.00;;
22826;SDS011;11580;52.562;13.418;2023-03-01T07:24:13;23.83;;;19.50;;
22826;SDS011;11580;52.562;13.418;2023-03-01T07:26:41;22.93;;;19.17;;
22826;SDS011;11580;52.562;13.418;2023-03-01T07:29:09;20.57;;;18.57;;
22826;SDS011;11580;52.562;13.418;2023-03-01T07:31:37;20.03;;;17.30;;
22826;SDS011;11580;52.562;13.418;2023-03-01T07:34:04;18.80;;;16.80;;
22826;SDS011;11580;52.562;13.418;2023-03-01T07:36:31;22.50;;;18.43;;
22826;SDS011;11580;52.562;13.418;2023-03-01T07:38:58;19.27;;;17.37;;
22826;SDS011;11580;52.562;13.418;2023-03-01T07:41:29;18.63;;;16.63;;
22826;SDS011;11580;52.562;13.418;2023-03-01T07:43:56;20.30;;;18.33;;
22826;SDS011;11580;52.562;13.418;2023-03-01T07:46:23;19.00;;;16.93;;
22826;SDS011;11580;52.562;13.418;2023-03-01T07:48:50;20.17;;;16.90;;
22826;SDS011;11580;52.562;13.418;2023-03-01T07:51:17;21.13;;;18.90;;
22826;SDS011;11580;52.562;13.418;2023-03-01T07:53:45;21.23;;;17.60;;
22826;SDS011;11580;52.562;13.418;2023-03-01T07:56:14;16.50;;;14.80;;
22826;SDS011;11580;52.562;13.418;2023-03-01T07:58:44;17.83;;;16.07;;
22826;SDS011;11580;52.562;13.418;2023-03-01T08:01:12;18.20;;;16.07;;
22826;SDS011;11580;52.562;13.418;2023-03-01T08:03:42;17.57;;;15.63;;
22826;SDS011;11580;52.562;13.418;2023-03-01T08:06:10;16.57;;;14.60;;
22826;SDS011;11580;52.562;13.418;2023-03-01T08:08:39;17.10;;;15.13;;
22826;SDS011;11580;52.562;13.418;2023-03-01T08:11:07;18.53;;;14.97;;
22826;SDS011;11580;52.562;13.418;2023-03-01T08:13:37;15.73;;;14.10;;
22826;SDS011;11580;52.562;13.418;2023-03-01T08:16:07;16.03;;;11.93;;
22826;SDS011;11580;52.562;13.418;2023-03-01T08:18:38;13.20;;;12.00;;
22826;SDS011;11580;52.562;13.418;2023-03-01T08:21:06;13.20;;;11.90;;
22826;SDS011;11580;52.562;13.418;2023-03-01T08:23:35;12.07;;;10.97;;
22826;SDS011;11580;52.562;13.418;2023-03-01T08:26:03;12.57;;;11.33;;
22826;SDS011;11580;52.562;13.418;2023-03-01T08:28:33;11.23;;;10.10;;
22826;SDS011;11580;52.562;13.418;2023-03-01T08:31:01;11.60;;;10.40;;
22826;SDS011;11580;52.562;13.418;2023-03-01T08:33:30;10.40;;;9.30;;
22826;SDS011;11580;52.562;13.418;2023-03-01T08:36:03;10.87;;;9.83;;
22826;SDS011;11580;52.562;13.418;2023-03-01T08:38:32;10.17;;;9.17;;
22826;SDS011;11580;52.562;13.418;2023-03-01T08:40:59;11.40;;;9.80;;
22826;SDS011;11580;52.562;13.418;2023-03-01T08:43:27;10.37;;;9.40;;
22826;SDS011;11580;52.562;13.418;2023-03-01T08:45:55;9.90;;;8.90;;
22826;SDS011;11580;52.562;13.418;2023-03-01T08:48:22;9.53;;;8.63;;
22826;SDS011;11580;52.562;13.418;2023-03-01T08:50:50;10.37;;;7.97;;
22826;SDS011;11580;52.562;13.418;2023-03-01T08:53:18;9.50;;;8.70;;
22826;SDS011;11580;52.562;13.418;2023-03-01T08:55:45;8.23;;;7.37;;
22826;SDS011;11580;52.562;13.418;2023-03-01T08:58:12;7.00;;;6.23;;
22826;SDS011;11580;52.562;13.418;2023-03-01T09:00:40;8.87;;;6.97;;
22826;SDS011;11580;52.562;13.418;2023-03-01T09:03:07;7.17;;;6.53;;
22826;SDS011;11580;52.562;13.418;2023-03-01T09:05:34;8.60;;;7.80;;
22826;SDS011;11580;52.562;13.418;2023-03-01T09:08:03;9.03;;;7.10;;
22826;SDS011;11580;52.562;13.418;2023-03-01T09:10:31;8.60;;;7.47;;
22826;SDS011;11580;52.562;13.418;2023-03-01T09:12:58;8.50;;;7.30;;
22826;SDS011;11580;52.562;13.418;2023-03-01T09:15:25;7.63;;;6.90;;
22826;SDS011;11580;52.562;13.418;2023-03-01T09:17:52;9.83;;;7.70;;
22826;SDS011;11580;52.562;13.418;2023-03-01T09:20:19;8.93;;;8.13;;
22826;SDS011;11580;52.562;13.418;2023-03-01T09:22:47;7.97;;;7.27;;
22826;SDS011;11580;52.562;13.418;2023-03-01T09:25:15;8.43;;;7.77;;
22826;SDS011;11580;52.562;13.418;2023-03-01T09:27:42;7.70;;;6.93;;
22826;SDS011;11580;52.562;13.418;2023-03-01T09:30:10;6.90;;;6.30;;
22826;SDS011;11580;52.562;13.418;2023-03-01T09:32:38;7.57;;;6.33;;
22826;SDS011;11580;52.562;13.418;2023-03-01T09:35:07;7.10;;;6.50;;
22826;SDS011;11580;52.562;13.418;2023-03-01T09:37:35;8.87;;;7.03;;
22826;SDS011;11580;52.562;13.418;2023-03-01T09:40:05;5.87;;;5.37;;
22826;SDS011;11580;52.562;13.418;2023-03-01T09:42:46;5.63;;;5.23;;
22826;SDS011;11580;52.562;13.418;2023-03-01T09:45:25;5.30;;;4.70;;
22826;SDS011;11580;52.562;13.418;2023-03-01T09:47:59;4.30;;;3.87;;
22826;SDS011;11580;52.562;13.418;2023-03-01T09:50:32;4.50;;;4.20;;
22826;SDS011;11580;52.562;13.418;2023-03-01T09:53:05;4.33;;;3.93;;
22826;SDS011;11580;52.562;13.418;2023-03-01T09:55:42;4.43;;;4.13;;
22826;SDS011;11580;52.562;13.418;2023-03-01T09:58:25;3.67;;;3.37;;
22826;SDS011;11580;52.562;13.418;2023-03-01T10:01:14;5.47;;;3.53;;
22826;SDS011;11580;52.562;13.418;2023-03-01T10:04:04;4.03;;;3.73;;
22826;SDS011;11580;52.562;13.418;2023-03-01T10:06:58;5.70;;;3.70;;
22826;SDS011;11580;52.562;13.418;2023-03-01T10:09:39;4.40;;;4.00;;
22826;SDS011;11580;52.562;13.418;2023-03-01T10:12:10;3.10;;;2.80;;
22826;SDS011;11580;52.562;13.418;2023-03-01T10:14:44;3.60;;;3.10;;
22826;SDS011;11580;52.562;13.418;2023-03-01T10:17:25;4.10;;;3.70;;
22826;SDS011;11580;52.562;13.418;2023-03-01T10:20:10;3.30;;;3.10;;
22826;SDS011;11580;52.562;13.418;2023-03-01T10:22:45;3.80;;;3.50;;
22826;SDS011;11580;52.562;13.418;2023-03-01T10:25:17;6.00;;;3.70;;
22826;SDS011;11580;52.562;13.418;2023-03-01T10:28:16;4.10;;;3.60;;
22826;SDS011;11580;52.562;13.418;2023-03-01T10:30:47;3.60;;;3.30;;
22826;SDS011;11580;52.562;13.418;2023-03-01T10:33:16;3.83;;;3.53;;
22826;SDS011;11580;52.562;13.418;2023-03-01T10:35:46;4.13;;;3.63;;
22826;SDS011;11580;52.562;13.418;2023-03-01T10:38:15;3.80;;;3.50;;
22826;SDS011;11580;52.562;13.418;2023-03-01T10:40:50;3.97;;;3.67;;
22826;SDS011;11580;52.562;13.418;2023-03-01T10:43:20;3.70;;;3.40;;
22826;SDS011;11580;52.562;13.418;2023-03-01T10:45:50;4.30;;;3.97;;
22826;SDS011;11580;52.562;13.418;2023-03-01T10:48:18;4.23;;;3.93;;
22826;SDS011;11580;52.562;13.418;2023-03-01T10:50:50;3.83;;;3.53;;
22826;SDS011;11580;52.562;13.418;2023-03-01T10:53:33;3.97;;;3.63;;
22826;SDS011;11580;52.562;13.418;2023-03-01T10:56:04;3.73;;;3.43;;
22826;SDS011;11580;52.562;13.418;2023-03-01T10:58:35;3.63;;;3.27;;
22826;SDS011;11580;52.562;13.418;2023-03-01T11:01:06;4.20;;;3.80;;
22826;SDS011;11580;52.562;13.418;2023-03-01T11:04:08;4.13;;;3.77;;
22826;SDS011;11580;52.562;13.418;2023-03-01T11:06:40;3.80;;;3.50;;
22826;SDS011;11580;52.562;13.418;2023-03-01T11:09:14;3.97;;;3.67;;
22826;SDS011;11580;52.562;13.418;2023-03-01T11:11:45;4.60;;;3.80;;
22826;SDS011;11580;52.562;13.418;2023-03-01T11:14:18;4.43;;;3.90;;
22826;SDS011;11580;52.562;13.418;2023-03-01T11:16:58;3.70;;;3.40;;
22826;SDS011;11580;52.562;13.418;2023-03-01T11:19:27;4.33;;;3.87;;
22826;SDS011;11580;52.562;13.418;2023-03-01T11:21:56;5.30;;;3.83;;
22826;SDS011;11580;52.562;13.418;2023-03-01T11:24:30;3.30;;;3.10;;
22826;SDS011;11580;52.562;13.418;2023-03-01T11:27:16;3.93;;;3.57;;
22826;SDS011;11580;52.562;13.418;2023-03-01T11:29:48;4.30;;;3.90;;
22826;SDS011;11580;52.562;13.418;2023-03-01T11:32:25;4.07;;;3.67;;
22826;SDS011;11580;52.562;13.418;2023-03-01T11:35:01;4.00;;;3.70;;
22826;SDS011;11580;52.562;13.418;2023-03-01T11:37:36;4.83;;;4.33;;
22826;SDS011;11580;52.562;13.418;2023-03-01T11:40:11;3.50;;;3.20;;
22826;SDS011;11580;52.562;13.418;2023-03-01T11:42:48;2.83;;;2.63;;
22826;SDS011;11580;52.562;13.418;2023-03-01T11:45:28;4.03;;;3.27;;
22826;SDS011;11580;52.562;13.418;2023-03-01T11:51:13;4.07;;;2.63;;
22826;SDS011;11580;52.562;13.418;2023-03-01T11:53:55;2.60;;;2.40;;
22826;SDS011;11580;52.562;13.418;2023-03-01T11:56:37;3.07;;;2.47;;
22826;SDS011;11580;52.562;13.418;2023-03-01T12:05:44;3.50;;;2.77;;
22826;SDS011;11580;52.562;13.418;2023-03-01T12:08:50;3.50;;;3.20;;
22826;SDS011;11580;52.562;13.418;2023-03-01T12:11:37;5.00;;;2.80;;
22826;SDS011;11580;52.562;13.418;2023-03-01T12:14:22;3.83;;;3.10;;
22826;SDS011;11580;52.562;13.418;2023-03-01T12:20:21;3.20;;;2.90;;
22826;SDS011;11580;52.562;13.418;2023-03-01T12:23:11;3.23;;;2.80;;
22826;SDS011;11580;52.562;13.418;2023-03-01T12:26:05;3.90;;;3.07;;
22826;SDS011;11580;52.562;13.418;2023-03-01T12:28:52;2.90;;;2.50;;
22826;SDS011;11580;52.562;13.418;2023-03-01T12:32:05;3.30;;;3.00;;
22826;SDS011;11580;52.562;13.418;2023-03-01T12:35:26;2.90;;;2.60;;
22826;SDS011;11580;52.562;13.418;2023-03-01T12:38:11;3.27;;;2.90;;
22826;SDS011;11580;52.562;13.418;2023-03-01T12:41:02;3.77;;;3.40;;
22826;SDS011;11580;52.562;13.418;2023-03-01T12:44:07;2.73;;;2.53;;
22826;SDS011;11580;52.562;13.418;2023-03-01T12:46:57;3.00;;;2.80;;
22826;SDS011;11580;52.562;13.418;2023-03-01T12:49:40;3.03;;;2.77;;
22826;SDS011;11580;52.562;13.418;2023-03-01T12:52:13;3.40;;;3.10;;
22826;SDS011;11580;52.562;13.418;2023-03-01T12:54:49;3.33;;;3.03;;
22826;SDS011;11580;52.562;13.418;2023-03-01T12:57:24;3.13;;;2.87;;
22826;SDS011;11580;52.562;13.418;2023-03-01T13:00:09;3.00;;;2.80;;
22826;SDS011;11580;52.562;13.418;2023-03-01T13:02:54;2.80;;;2.60;;
22826;SDS011;11580;52.562;13.418;2023-03-01T13:05:37;3.90;;;2.50;;
22826;SDS011;11580;52.562;13.418;2023-03-01T13:08:14;3.00;;;2.80;;
22826;SDS011;11580;52.562;13.418;2023-03-01T13:10:51;3.07;;;2.70;;
22826;SDS011;11580;52.562;13.418;2023-03-01T13:13:25;4.23;;;2.30;;
22826;SDS011;11580;52.562;13.418;2023-03-01T13:15:54;2.80;;;2.60;;
22826;SDS011;11580;52.562;13.418;2023-03-01T13:18:31;2.30;;;2.10;;
22826;SDS011;11580;52.562;13.418;2023-03-01T13:21:00;2.37;;;2.17;;
22826;SDS011;11580;52.562;13.418;2023-03-01T13:23:32;2.80;;;2.50;;
22826;SDS011;11580;52.562;13.418;2023-03-01T13:26:05;2.30;;;2.10;;
22826;SDS011;11580;52.562;13.418;2023-03-01T13:34:44;2.57;;;2.10;;
22826;SDS011;11580;52.562;13.418;2023-03-01T13:37:21;2.40;;;2.30;;
22826;SDS011;11580;52.562;13.418;2023-03-01T13:40:04;2.87;;;2.47;;
22826;SDS011;11580;52.562;13.418;2023-03-01T13:43:29;3.47;;;2.57;;
22826;SDS011;11580;52.562;13.418;2023-03-01T13:45:58;2.13;;;2.03;;
22826;SDS011;11580;52.562;13.418;2023-03-01T13:48:33;2.30;;;2.10;;
22826;SDS011;11580;52.562;13.418;2023-03-01T13:51:01;3.17;;;2.70;;
22826;SDS011;11580;52.562;13.418;2023-03-01T13:53:33;2.30;;;2.10;;
22826;SDS011;11580;52.562;13.418;2023-03-01T13:56:07;2.67;;;2.00;;
22826;SDS011;11580;52.562;13.418;2023-03-01T13:58:48;2.90;;;2.70;;
22826;SDS011;11580;52.562;13.418;2023-03-01T14:01:23;2.80;;;2.23;;
22826;SDS011;11580;52.562;13.418;2023-03-01T14:03:54;2.80;;;2.20;;
22826;SDS011;11580;52.562;13.418;2023-03-01T14:06:22;2.43;;;2.23;;
22826;SDS011;11580;52.562;13.418;2023-03-01T14:08:52;2.53;;;2.33;;
22826;SDS011;11580;52.562;13.418;2023-03-01T14:14:56;3.00;;;2.40;;
22826;SDS011;11580;52.562;13.418;2023-03-01T14:17:35;2.40;;;2.20;;
22826;SDS011;11580;52.562;13.418;2023-03-01T14:20:20;2.30;;;2.10;;
22826;SDS011;11580;52.562;13.418;2023-03-01T14:22:51;3.13;;;2.87;;
22826;SDS011;11580;52.562;13.418;2023-03-01T14:25:23;3.07;;;2.50;;
22826;SDS011;11580;52.562;13.418;2023-03-01T14:27:56;2.00;;;1.80;;
22826;SDS011;11580;52.562;13.418;2023-03-01T14:30:31;2.37;;;2.17;;
22826;SDS011;11580;52.562;13.418;2023-03-01T14:33:04;2.33;;;2.13;;
22826;SDS011;11580;52.562;13.418;2023-03-01T14:35:51;2.63;;;2.30;;
22826;SDS011;11580;52.562;13.418;2023-03-01T14:38:22;2.23;;;2.10;;
22826;SDS011;11580;52.562;13.418;2023-03-01T14:40:55;2.77;;;2.30;;
22826;SDS011;11580;52.562;13.418;2023-03-01T14:43:28;2.67;;;2.40;;
22826;SDS011;11580;52.562;13.418;2023-03-01T14:45:58;2.50;;;2.30;;
22826;SDS011;11580;52.562;13.418;2023-03-01T14:48:27;2.60;;;2.40;;
22826;SDS011;11580;52.562;13.418;2023-03-01T14:50:57;3.37;;;2.57;;
22826;SDS011;11580;52.562;13.418;2023-03-01T14:53:25;2.40;;;2.20;;
22826;SDS011;11580;52.562;13.418;2023-03-01T14:55:56;3.40;;;2.70;;
22826;SDS011;11580;52.562;13.418;2023-03-01T14:58:28;3.47;;;2.93;;
22826;SDS011;11580;52.562;13.418;2023-03-01T15:01:00;2.60;;;2.40;;
22826;SDS011;11580;52.562;13.418;2023-03-01T15:03:31;2.70;;;2.40;;
22826;SDS011;11580;52.562;13.418;2023-03-01T15:06:03;3.57;;;2.63;;
22826;SDS011;11580;52.562;13.418;2023-03-01T15:08:33;2.40;;;2.30;;
22826;SDS011;11580;52.562;13.418;2023-03-01T15:11:04;3.00;;;2.70;;
22826;SDS011;11580;52.562;13.418;2023-03-01T15:13:47;2.40;;;2.20;;